默认 日期 大小 文件数 浏览量 最新下载 xml
a solo磁力链接相关资源由用户搜索指令自动获取,结果来源于网络,本站不存储任何资料,亦不承担任何责任,请于24小时内删除,搜索到1656个磁力,用时20ms。
    {"www.YTS.MX.jpg": 53226, "YIFYStatus.com.txt": 358, "Zoom.In.Solo.A.Star.Wars.Story.2018.720p.BluRay.x264.AAC-[YTS.MX].mp4": 1300613871}
创建时间: 2023-06-15 08:39:19 大小:1.21 GB 文件数量:3 热度:3 最近下载:2025-05-02 20:46:01
    {"Readme.txt": 160, "Solo A Star Wars Story 2018.BluRay.XviD.X264-EVO.avi": 796934430}
创建时间: 2023-06-28 06:52:47 大小:760.02 MB 文件数量:2 热度:2 最近下载:2025-01-22 09:52:07
    {"PornRips.to - HEVC x265 Porn.nfo": 47, "[XvX]Endorsed by torrentgalaxy.to .nfo": 718, "OnlyFans.2023.Sexyflowerwater.A.Shiny.Oily.Solo.Fuck.XXX.1080p.HEVC.x265.PRT.mkv": 394110257}
创建时间: 2023-06-28 09:08:49 大小:375.85 MB 文件数量:3 热度:16 最近下载:2025-08-03 10:14:07
    {"PornRips.to - HEVC x265 Porn.nfo": 47, "[XvX]Endorsed by torrentgalaxy.to .nfo": 718, "OnlyFans.2023.Sexyflowerwater.A.Shiny.Oily.Solo.Fuck.XXX.720p.HEVC.x265.PRT.mkv": 203928326}
创建时间: 2023-06-29 20:22:01 大小:194.48 MB 文件数量:3 热度:9 最近下载:2025-07-31 12:06:02
    {"Provided by PornRips.to.nfo": 47, "OnlyFans.2023.Sexyflowerwater.A.Shiny.Oily.Solo.Fuck.XXX.1080p.HEVC.x265.PRT.mp4": 394662445}
创建时间: 2023-07-10 10:01:16 大小:376.38 MB 文件数量:2 热度:18 最近下载:2025-08-13 05:48:01
    ... , BWV 1019 III. Allegro (cembalo solo).flac": 110928034}
创建时间: 2023-07-11 21:12:37 大小:2 GB 文件数量:26 热度:7 最近下载:2025-02-06 09:53:02
    {"01.jpg": 3664285, "02.jpg": 3469451, "03.jpg": 3493666, "04.jpg": 3546055, "05.jpg": 2593769, "06.jpg": 3349354, "07.jpg": 3325779, "08.jpg": 2932219, "09.jpg": 2954936, "10.jpg": 3539892, "11.jpg": 2952573, "12.jpg": 3277850, "13.jpg": 3056113, "14.jpg ...
创建时间: 2023-07-14 05:10:31 大小:73.62 MB 文件数量:24 热度:2 最近下载:2025-01-16 05:19:03
    {"LEIA-ME.txt": 965, "BLUDV.TO.url": 121, "GRUPO TELEGRAM.url": 130, "TorrentDosFilmes.SITE.url": 130, "A Venezuela em Solo Brasileiro 2023 WEB-DL 1080p x264 NACIONAL 2.0.mkv": 565554576}
创建时间: 2023-07-19 05:41:26 大小:539.36 MB 文件数量:5 热度:6 最近下载:2025-02-06 09:51:05
    {"Solo A Star Wars Story (2018) 2160p x265 10bit HDR UHD BD Atmos.mkv": 15710652518}
创建时间: 2023-07-28 06:20:14 大小:14.63 GB 文件数量:1 热度:4 最近下载:2025-01-18 23:41:03
    ... ).flac": 124663344, "06. Gonna Be a Pilot (1M8).flac": 12044600, "08 ... ": 321655483, "30. Qi’Ra Knows a Bit More Than Han (6M36 ...
创建时间: 2023-08-06 16:46:26 大小:3.6 GB 文件数量:38 热度:9 最近下载:2025-09-18 20:31:08
    ... .wv": 145945521, "15. IV. A Tempo Giusto.wv": 58387808, "21 ... Staccato.wv": 188182956, "14. III. A Tempo Commodo.wv": 133739978, "07 ... 138771693, "23. Concerto Di Violino Solo Con Piu Stromenti (Sonata In ... .wv": 204655704, "26. Concerto A Cinque In F For Violin ...
创建时间: 2023-08-06 21:36:34 大小:3.29 GB 文件数量:28 热度:9 最近下载:2025-09-20 12:24:06
    {"BDMV": {"JAR": {"00001": {"RC_QS_Composite1_bt2020_HDR.png": 137051, "RC_US_CA_Composite1_bt2020_HDR.png": 165422, "RC_US_EN_Composite1_bt2020_HDR.png": 183623, "RC_US_FC_Composite1_bt2020_HDR.png": 210136, "RC_US_KO_Composite1_bt2020_HDR.png": 163132, " ...
创建时间: 2023-08-29 09:35:59 大小:54.08 GB 文件数量:359 热度:33 最近下载:2025-10-17 20:11:01
    {"CD1": {"Log EAC.log": 14158, ".Playlist.m3u8": 1090, "07 Posato.flac": 23345156, "02 Moderato.flac": 17529701, "10 Vivace - The Fury.flac": 14016627, "01 Andante - Arpeggio.flac": 10555913, "03 Sostenuto - Presto.flac": 15253075, "05 Agitato - Bungee.... ...
创建时间: 2023-08-29 20:51:56 大小:403.39 MB 文件数量:37 热度:3 最近下载:2025-01-20 17:44:06
    ... .jpg": 7558, "solo.a.star.wars.story_201910_meta.xml": 1059, "solo.a.star.wars.story_201910_meta ... .sqlite": 61440, "John Williams - Solo_ A Star ...
创建时间: 2023-09-01 22:21:34 大小:613.62 MB 文件数量:126 热度:2 最近下载:2025-01-27 05:19:04
    ... "002-Cervux Sequential (Feat.Lisa A).mp3": 11253106, "006-Blastlocket ( ... .mp3": 11665940, "001-A Kind Of A Christmas Card.mp3": 10079786 ... Me.mp3": 9254776, "007-A Name Is A Name.mp3": 7397992, " ... 10995408, "011-White Walls,A Door And A Window.mp3": 2806554, "012 ...
创建时间: 2023-09-14 21:04:08 大小:3.5 GB 文件数量:461 热度:5 最近下载:2025-04-06 04:34:01
    {"Solo.A.Star.Wars.Story.2018.BluRay. ... .x265.10bit-DreamHD.mkv": 11649139770, "Solo.A.Star.Wars.Story.2018.BluRay ...
创建时间: 2023-09-24 23:47:12 大小:10.85 GB 文件数量:5 热度:38 最近下载:2025-10-17 20:11:02
    {"I May Be a Guild Receptionist, but I’ll Solo Any Boss to Clock Out on Time v01 [Yen Press] [Stick].epub": 10654658}
创建时间: 2023-09-28 15:29:12 大小:10.16 MB 文件数量:1 热度:4 最近下载:2025-02-23 18:42:03
    {"_ free audiobook version.txt": 716, "_ uploads will cease (your support needed - urgent - monthly goal).txt": 773, "Solo Success_ 100 Tips for Becoming a $100,000-a-Year Freelancer by David Perlstein.pdf": 18103534}
创建时间: 2023-09-29 22:39:53 大小:17.27 MB 文件数量:3 热度:5 最近下载:2025-01-26 21:02:06
    ... 752654, "IMG_0014.jpg": 565251, "A Sleeping Forest.txt": 840, "The ... Daydream - A Sleeping Forest.cue": 2064, " ... The Daydream - A Sleeping Forest.log": 1985, " ... The Daydream - A Sleeping Forest.wav": 623541116, " ...
创建时间: 2023-10-02 07:47:00 大小:605.16 MB 文件数量:35 热度:9 最近下载:2025-09-21 17:11:01
    {"BTS.1080p.mp4": 155617459, "Scene01.1080p.mp4": 1777066528, "Scene02.1080p.mp4": 1566195754, "Scene03.1080p.mp4": 1687358167, "Scene04.1080p.mp4": 1791561072, "Torrent Downloaded From XXXClub.to .nfo": 34}
创建时间: 2023-10-02 08:50:34 大小:6.5 GB 文件数量:6 热度:33 最近下载:2025-05-30 15:17:01